»·PEaware :: GTI492 KSAN-KVCV

GTI492 :: KSAN-KVCV

FLIGHT INFORMATION

Flight Status: Arrived
Operator:
Atlas Air
More flights by this operator :: More flights under this callsign
Pilot: Mike C. (16705)
Aircraft: BOEING 767-300
(B763)
More flights by this aircraft type
Origin: KSAN San Diego Intl-Lindbergh
United States
Destination: KVCV Socal Logistics
United States
More flights between these airports :: More routes between these airports
Route: +CWARD2 SLI V459 BERRI V201 PMD
File this flight plan on PilotEdge
Remarks: RMK / SIMBRIEF
Altitude:
(Current/Filed)
30,000ft
Speed:
(Current/Filed)
484kts
Departed: 02-Feb-20 07:45 PM
Arrived: 02-Feb-20 08:26 PM
Distance/Time
Traveled:
112nm/0:41
Distance/Time
To Go:
Arrived

Flight Plot

Page will automatically refresh every two minutes.

Flight plan parsing failed; only flown route is shown


Map Options




Map Legend


Flown Route
Filed Route
Departure Airport
Arrival Airport
Navaid (VOR, NDB)
Fix

Horizontal Profiles

Position Reports

Time Latitude Longitude Heading Altitude Ground
Speed
02-Feb-20 19:01 32.735176 -117.183665 53 28ft 0kts
02-Feb-20 19:02 32.735176 -117.183665 53 29ft 0kts
02-Feb-20 19:03 32.735176 -117.183665 53 29ft 0kts
02-Feb-20 19:04 32.735176 -117.183665 53 29ft 0kts
02-Feb-20 19:05 32.735176 -117.183665 53 28ft 0kts
02-Feb-20 19:06 32.735176 -117.183665 53 28ft 0kts
02-Feb-20 19:07 32.735176 -117.183665 53 28ft 0kts
02-Feb-20 19:08 32.735175 -117.183665 53 28ft 0kts
02-Feb-20 19:09 32.735175 -117.183665 53 28ft 0kts
02-Feb-20 19:10 32.735175 -117.183665 53 28ft 0kts
02-Feb-20 19:11 32.735175 -117.183665 53 28ft 0kts
02-Feb-20 19:12 32.735175 -117.183665 53 28ft 0kts
02-Feb-20 19:13 32.735175 -117.183665 53 28ft 0kts
02-Feb-20 19:14 32.735175 -117.183665 53 28ft 0kts
02-Feb-20 19:15 32.735175 -117.183665 53 28ft 0kts
02-Feb-20 19:16 32.735175 -117.183665 53 28ft 0kts
02-Feb-20 19:17 32.735175 -117.183665 53 28ft 0kts
02-Feb-20 19:18 32.735175 -117.183665 53 28ft 0kts
02-Feb-20 19:19 32.735175 -117.183665 53 28ft 0kts
02-Feb-20 19:20 32.735175 -117.183665 53 28ft 0kts
02-Feb-20 19:21 32.735175 -117.183665 53 28ft 0kts
02-Feb-20 19:22 32.735175 -117.183665 53 28ft 0kts
02-Feb-20 19:23 32.735175 -117.183665 53 28ft 0kts
02-Feb-20 19:24 32.735175 -117.183665 53 28ft 0kts
02-Feb-20 19:25 32.735175 -117.183665 53 28ft 0kts
02-Feb-20 19:26 32.735175 -117.183665 53 28ft 0kts
02-Feb-20 19:27 32.735175 -117.183665 53 28ft 0kts
02-Feb-20 19:28 32.735175 -117.183665 53 28ft 0kts
02-Feb-20 19:29 32.735175 -117.183665 53 28ft 0kts
02-Feb-20 19:30 32.735175 -117.183665 53 28ft 0kts
02-Feb-20 19:31 32.735175 -117.183665 53 28ft 0kts
02-Feb-20 19:32 32.735095 -117.183821 71 28ft 2kts
02-Feb-20 19:33 32.735185 -117.184499 130 28ft 2kts
02-Feb-20 19:35 32.735317 -117.184642 147 28ft 0kts
02-Feb-20 19:36 32.735317 -117.184642 147 28ft 0kts
02-Feb-20 19:37 32.735317 -117.184642 147 28ft 0kts
02-Feb-20 19:38 32.735317 -117.184642 147 28ft 0kts
02-Feb-20 19:39 32.735259 -117.184598 147 28ft 1kts
02-Feb-20 19:40 32.733187 -117.183375 109 28ft 10kts
02-Feb-20 19:41 32.732460 -117.180172 106 28ft 9kts
02-Feb-20 19:42 32.731747 -117.177209 106 28ft 9kts
02-Feb-20 19:43 32.730517 -117.175311 178 28ft 5kts
02-Feb-20 19:44 32.730217 -117.175863 282 28ft 0kts
02-Feb-20 19:45 32.734131 -117.191730 286 29ft 142kts
02-Feb-20 19:46 32.753114 -117.241576 302 1413ft 190kts
02-Feb-20 19:47 32.790590 -117.304126 305 3445ft 244kts
02-Feb-20 19:48 32.834076 -117.372138 310 6119ft 268kts
02-Feb-20 19:49 32.880126 -117.443347 309 8946ft 279kts
02-Feb-20 19:50 32.929838 -117.520596 309 10814ft 325kts
02-Feb-20 19:51 32.988779 -117.612488 308 12014ft 381kts
02-Feb-20 19:52 33.051189 -117.710048 308 11999ft 366kts
02-Feb-20 19:53 33.125674 -117.792453 321 11994ft 364kts
02-Feb-20 19:53 33.191184 -117.856062 333 11990ft 362kts
02-Feb-20 19:55 33.304111 -117.889330 350 12007ft 358kts
02-Feb-20 19:56 33.399955 -117.915148 344 12005ft 355kts
02-Feb-20 19:56 33.479064 -117.943798 345 12011ft 355kts
02-Feb-20 19:58 33.589769 -117.984076 345 12005ft 356kts
02-Feb-20 19:59 33.684380 -118.018594 345 11999ft 355kts
02-Feb-20 19:59 33.763494 -118.047520 345 11997ft 354kts
02-Feb-20 20:00 33.854531 -118.095671 336 11994ft 356kts
02-Feb-20 20:02 33.959079 -118.155811 336 11994ft 356kts
02-Feb-20 20:02 34.033525 -118.198752 336 11994ft 356kts
02-Feb-20 20:03 34.123937 -118.251009 336 12015ft 355kts
02-Feb-20 20:04 34.216445 -118.280248 15 12077ft 346kts
02-Feb-20 20:05 34.305155 -118.236545 24 12096ft 344kts
02-Feb-20 20:06 34.392808 -118.190371 24 11684ft 342kts
02-Feb-20 20:07 34.475995 -118.146351 24 10286ft 294kts
02-Feb-20 20:08 34.546072 -118.109172 23 9183ft 269kts
02-Feb-20 20:09 34.609506 -118.065658 55 9056ft 269kts
02-Feb-20 20:10 34.649416 -117.987680 57 9046ft 271kts
02-Feb-20 20:11 34.689934 -117.910984 55 9054ft 272kts
02-Feb-20 20:12 34.732386 -117.834365 55 9051ft 262kts
02-Feb-20 20:13 34.770232 -117.766031 55 9063ft 238kts
02-Feb-20 20:14 34.799536 -117.693926 71 8912ft 244kts
02-Feb-20 20:15 34.819804 -117.617251 71 7228ft 233kts
02-Feb-20 20:16 34.838315 -117.547530 71 6196ft 198kts
02-Feb-20 20:17 34.855184 -117.484084 71 6144ft 188kts
02-Feb-20 20:18 34.871191 -117.423908 71 6167ft 187kts
02-Feb-20 20:19 34.863548 -117.371468 172 6163ft 180kts
02-Feb-20 20:20 34.816158 -117.388633 180 6166ft 177kts
02-Feb-20 20:21 34.766393 -117.388107 179 5723ft 177kts
02-Feb-20 20:22 34.717821 -117.387653 179 4800ft 174kts
02-Feb-20 20:23 34.671455 -117.387217 178 3870ft 152kts
02-Feb-20 20:24 34.628658 -117.386829 179 3160ft 152kts
02-Feb-20 20:25 34.596701 -117.386483 177 2895ft 30kts
02-Feb-20 20:26 34.595017 -117.385754 99 2895ft 7kts
02-Feb-20 20:27 34.593402 -117.382225 135 2895ft 16kts
02-Feb-20 20:28 34.589946 -117.378002 134 2895ft 16kts
02-Feb-20 20:29 34.587492 -117.376332 140 2895ft 11kts
02-Feb-20 20:30 34.587376 -117.375692 44 2895ft 0kts
02-Feb-20 20:31 34.587376 -117.375692 44 2895ft 0kts
02-Feb-20 20:32 34.587376 -117.375692 44 2895ft 0kts

Navigation Log

Ident Type
Flight plan parsing failed, navigation log unavailable